Tiempo atmosférico en la estación meteorológica de Mogán, Puerto Rico, Las Palmas (10 m.)



Fecha
DESCASC
Temp. máxima en grados centígrados (hora)
DESCASC
Temp. mínima en grados centígrados (hora)
DESCASC
Temp. media en grados centígrados
DESCASC
Racha de viento máxima en m/sg (hora)
DESCASC
Velocidad máxima media en intervalos de 10 minutos(hora)
DESCASC
Precipitaciones diarias en mm
DESCASC
Precipitaciones de 00:00 a 06:00 en mm
DESCASC
Precipitaciones de 06:00 a 12:00 en mm
DESCASC
Precipitaciones de 12:00 a 18:00 en mm
DESCASC
Precipitaciones de 18:00 a 24:00 en mm
DESCASC
25-04-2019 21 (15:20) 16.7 (07:40) 18.9 8.33 (16:20) 6.94 (16:20) 0 0 0 0 0
24-04-2019 22.6 (09:20) 17.2 (07:00) 19.9 12.22 (19:10) 8.33 (18:50) 0 0 0 0 0
23-04-2019 22.6 (19:50) 17.5 (05:50) 20.1 8.33 (18:40) 6.11 (18:40) 0 0 0 0 0
22-04-2019 19.8 (09:30) 17.6 (00:00) 18.7 7.22 (11:40) 6.39 (11:40) 0 0 0 0 0
21-04-2019 20.6 (12:40) 17.1 (00:00) 18.9 6.67 (15:40) 5.83 (15:40) 0 0 0 0 0
20-04-2019 21.4 (09:40) 16.5 (00:00) 18.9 9.17 (15:00) 8.06 (15:10) 0 0 0 0 0
19-04-2019 22.1 (09:10) 17.4 (00:00) 19.8 10 (14:10) 7.78 (14:10) 0 0 0 0 0
18-04-2019 21.4 (09:40) 17.6 (00:00) 19.5 8.89 (18:30) 7.5 (18:30) 0 0 0 0 0
17-04-2019 20.4 (18:30) 18.3 (00:00) 19.3 6.67 (04:40) 5.28 (21:00) 0 0 0 0 0
16-04-2019 20.9 (16:40) 17.2 (00:00) 19.1 11.67 (22:20) 8.33 (19:10) 0 0 0 0 0
15-04-2019 20.6 (18:50) 17.5 (00:00) 19.1 6.11 (17:50) 5 (17:30) 0 0 0 0 0
14-04-2019 22.1 (09:50) 16.9 (00:00) 19.5 8.89 (17:20) 7.22 (17:20) 0 0 0 0 0
13-04-2019 22.3 (09:20) 16.8 (00:00) 19.5 6.67 (17:30) 5.28 (17:30) 0 0 0 0 0
12-04-2019 21.7 (09:20) 16.6 (00:00) 19.2 7.22 (15:40) 5.83 (15:40) 0 0 0 0 0
11-04-2019 21.6 (09:40) 16.7 (00:00) 19.2 6.67 (15:10) 5.28 (18:00) 0 0 0 0 0
10-04-2019 19.7 (10:30) 18 (00:00) 18.9 7.5 (18:20) 6.39 (18:00) 0 0 0 0 0
09-04-2019 20.8 (09:40) 17.1 (00:00) 18.9 6.67 (14:40) 5.56 (14:10) 0 0 0 0 0
08-04-2019 23.7 (09:30) 17 (00:00) 20.4 7.22 (20:20) 6.39 (20:20) 0 0 0 0 0
07-04-2019 22.5 (09:40) 16.2 (00:00) 19.4 6.67 (19:30) 5.56 (19:00) 0 0 0 0 0
06-04-2019 21.9 (17:10) 17.1 (00:00) 19.5 12.22 (16:50) 9.17 (18:10) 0 0 0 0 0
05-04-2019 23.7 (09:50) 16.3 (00:00) 20 13.33 (12:50) 8.89 (13:40) 0 0 0 0 0
04-04-2019 20.6 (18:40) 17.2 (00:00) 18.9 8.61 (02:10) 6.67 (17:10) 0 0 0 0 0
03-04-2019 20.9 (10:50) 17.4 (00:00) 19.1 10.28 (11:40) 8.33 (11:40) 4 0 4 0 0
02-04-2019 20.2 (18:30) 17.4 (00:00) 18.8 9.17 (18:00) 7.22 (19:10) 0 0 0 0 0
01-04-2019 19.6 (09:20) 16.8 (00:00) 18.2 6.39 (11:50) 5.56 (12:00) 0 0 0 0 0
31-03-2019 20.2 (15:20) 15.8 (00:00) 18 7.22 (18:00) 5.83 (18:00) 0 0 0 0 0
30-03-2019 21.3 (08:20) 16.4 (00:00) 18.8 6.39 (12:40) 5.28 (12:40) 0 0 0 0 0
29-03-2019 21.3 (09:10) 16.6 (00:00) 18.9 8.61 (19:50) 6.11 (19:00) 0 0 0 0 0
28-03-2019 22.1 (08:30) 16.9 (00:00) 19.5 6.39 (13:00) 5.28 (13:10) 0 0 0 0 0
27-03-2019 20.2 (08:50) 16.5 (00:00) 18.4 6.11 (19:50) 5 (18:00) 0 0 0 0 0

Gráficas

Temp. máximas Temp. mínimas Temp. medias Precipitaciones Rachas de viento máximas Velocidades máximas media en intervalos de 10 minutos

Datos horarios

Fecha y hora oficial Temperatura (ºC) Velocidad del viento (km/h) Dirección del viento Racha (km/h) Dirección de racha Precipitación (mm) Presión (hPa) Tendencia (hPa) Humedad (%)
2019-04-25 23:00:00 19.4 4 Sur 16 Oeste 0 -- -- 76
2019-04-25 22:00:00 19.5 14 Oeste 20 Oeste 0 -- -- 78
2019-04-25 21:00:00 19.5 11 Oeste 25 Sur 0 -- -- 75
2019-04-25 20:00:00 19.6 24 Sur 29 Sur 0 -- -- 77
2019-04-25 19:00:00 19.8 20 Sur 24 Sur 0 -- -- 76
2019-04-25 18:00:00 20 15 Sur 23 Sur 0 -- -- 74
2019-04-25 17:00:00 19.6 22 Sudoeste 30 Sudoeste 0 -- -- 73
2019-04-25 16:00:00 19.8 23 Oeste 29 Oeste 0 -- -- 73
2019-04-25 15:00:00 20.7 10 Oeste 20 Sur 0 -- -- 66
2019-04-25 14:00:00 19.4 16 Sur 22 Sudeste 0 -- -- 70
2019-04-25 13:00:00 19.3 17 Sudeste 21 Sudeste 0 -- -- 69
2019-04-25 12:00:00 19 18 Sudeste 21 Sudeste 0 -- -- 68
2019-04-25 11:00:00 19.2 8 Sur 13 Sudoeste 0 -- -- 68
2019-04-25 10:00:00 20 7 Noroeste 15 Oeste 0 -- -- 70
2019-04-25 09:00:00 18.6 5 Norte 12 Norte 0 -- -- 74
2019-04-25 08:00:00 16.9 6 Norte 9 Norte 0 -- -- 78
2019-04-25 07:00:00 16.9 5 Norte 8 Nordeste 0 -- -- 77
2019-04-25 06:00:00 17.5 4 Nordeste 9 Nordeste 0 -- -- 76
2019-04-25 05:00:00 17.8 5 Este 10 Sudoeste 0 -- -- 75
2019-04-25 04:00:00 18 5 Oeste 9 Noroeste 0 -- -- 76
2019-04-25 03:00:00 17.7 4 Norte 6 Norte 0 -- -- 76
2019-04-25 02:00:00 17.5 3 Norte 5 Norte 0 -- -- 75
2019-04-25 01:00:00 18 3 Norte 11 Nordeste 0 -- -- 75
2019-04-25 00:00:00 18.4 7 Este 24 Sudeste 0 -- -- 75
2019-04-24 23:00:00 18.7 9 Este 24 Este 0 -- -- 74
2019-04-24 22:00:00 19.1 9 Nordeste 27 Nordeste 0 -- -- 70
2019-04-24 21:00:00 20.2 5 Nordeste 20 Este 0 -- -- 61
2019-04-24 20:00:00 21 14 Oeste 44 Noroeste 0 -- -- 66
2019-04-24 19:00:00 20.3 29 Noroeste 44 Noroeste 0 -- -- 70
2019-04-24 18:00:00 20.3 26 Oeste 32 Oeste 0 -- -- 70
2019-04-24 17:00:00 21 18 Oeste 26 Oeste 0 -- -- 67
2019-04-24 16:00:00 19.6 9 Sudoeste 20 Sudoeste 0 -- -- 69
2019-04-24 15:00:00 19.2 16 Sudoeste 22 Sudoeste 0 -- -- 72
2019-04-24 14:00:00 19.1 16 Sudoeste 20 Sudoeste 0 -- -- 72
2019-04-24 13:00:00 19 12 Sudoeste 17 Sur 0 -- -- 72
2019-04-24 12:00:00 19.2 12 Sur 17 Sur 0 -- -- 69
2019-04-24 11:00:00 19.2 10 Sur 14 Sur 0 -- -- 70
2019-04-24 10:00:00 19.4 3 Sudeste 6 Sudeste 0 -- -- 67
2019-04-24 09:00:00 21.2 3 Norte 7 Nordeste 0 -- -- 64
2019-04-24 08:00:00 17.3 5 Norte 8 Norte 0 -- -- 72
2019-04-24 07:00:00 17.2 5 Norte 7 Norte 0 -- -- 71
2019-04-24 06:00:00 17.9 4 Nordeste 9 Nordeste 0 -- -- 70
2019-04-24 05:00:00 18 6 Nordeste 13 Nordeste 0 -- -- 70
2019-04-24 04:00:00 18.5 7 Este 11 Este 0 -- -- 61
2019-04-24 03:00:00 18.1 5 Norte 14 Sur 0 -- -- 70
2019-04-24 02:00:00 19 11 Sudoeste 15 Sudoeste 0 -- -- 71
2019-04-24 01:00:00 18.9 0 Calma 8 Este 0 -- -- 73
2019-04-24 00:00:00 18.9 0 Calma 10 Este 0 -- -- 74
2019-04-23 23:00:00 19.2 6 Este 20 Este 0 -- -- 75
2019-04-23 22:00:00 19.3 10 Este 20 Este 0 -- -- 76
2019-04-23 21:00:00 20.2 10 Nordeste 28 Nordeste 0 -- -- 71
2019-04-23 20:00:00 22.1 15 Oeste 28 Oeste 0 -- -- 54
2019-04-23 19:00:00 21.4 20 Oeste 30 Oeste 0 -- -- 70
2019-04-23 18:00:00 20.7 10 Sudeste 15 Sudeste 0 -- -- 76
2019-04-23 17:00:00 20.4 7 Sur 9 Sur 0 -- -- 80
2019-04-23 16:00:00 20 8 Sudeste 14 Sudeste 0 -- -- 81
2019-04-23 15:00:00 19.7 13 Sudeste 18 Sudeste 0 -- -- 81
2019-04-23 14:00:00 19.6 16 Sudeste 20 Sudeste 0 -- -- 81
2019-04-23 13:00:00 19.5 12 Sudeste 16 Sudeste 0 -- -- 81
2019-04-23 12:00:00 19.4 10 Sur 14 Sur 0 -- -- 82
2019-04-23 11:00:00 19 11 Sur 15 Sudoeste 0 -- -- 84
2019-04-23 10:00:00 18.9 8 Oeste 14 Sudoeste 0 -- -- 83
2019-04-23 09:00:00 18.5 6 Norte 9 Norte 0 -- -- 83
2019-04-23 08:00:00 18.2 3 Norte 9 Norte 0 -- -- 83
2019-04-23 07:00:00 17.8 3 Norte 5 Norte 0 -- -- 83
2019-04-23 06:00:00 17.6 4 Norte 5 Norte 0 -- -- 83
2019-04-23 05:00:00 17.7 4 Norte 6 Norte 0 -- -- 82
2019-04-23 04:00:00 18.1 3 Norte 5 Norte 0 -- -- 81
2019-04-23 03:00:00 18.5 2 Nordeste 9 Este 0 -- -- 82
2019-04-23 02:00:00 18.7 6 Este 13 Sudeste 0 -- -- 83
2019-04-23 01:00:00 18.9 10 Sudeste 15 Sudeste 0 -- -- 83
2019-04-23 00:00:00 19.1 9 Sudeste 13 Este 0 -- -- 80
2019-04-22 23:00:00 19.1 5 Nordeste 14 Sudeste 0 -- -- 81
2019-04-22 22:00:00 18.9 4 Sur 10 Oeste 0 -- -- 82
2019-04-22 21:00:00 19.1 8 Oeste 17 Sudoeste 0 -- -- 82
2019-04-22 20:00:00 19.3 14 Sudoeste 19 Sudoeste 0 -- -- 80
2019-04-22 19:00:00 19.4 15 Sudoeste 18 Sudoeste 0 -- -- 80
2019-04-22 18:00:00 19.7 12 Sur 18 Sudoeste 0 -- -- 79
2019-04-22 17:00:00 19.6 15 Sudoeste 18 Sur 0 -- -- 78
2019-04-22 16:00:00 19.8 11 Sudoeste 15 Sur 0 -- -- 74
2019-04-22 15:00:00 19.6 12 Sudeste 22 Sudeste 0 -- -- 75
2019-04-22 14:00:00 19.3 17 Sudeste 24 Sudeste 0 -- -- 78
2019-04-22 13:00:00 19.1 20 Sudeste 24 Sudeste 0 -- -- 80
2019-04-22 12:00:00 19 21 Sudeste 26 Sudeste 0 -- -- 80
2019-04-22 11:00:00 19.2 21 Sudeste 24 Sudeste 0 -- -- 77
2019-04-22 10:00:00 19.7 10 Sudeste 16 Este 0 -- -- 73
2019-04-22 09:00:00 19.4 5 Nordeste 12 Nordeste 0 -- -- 77
2019-04-22 08:00:00 18.2 4 Este 10 Este 0 -- -- 81
2019-04-22 07:00:00 17.7 4 Norte 8 Norte 0 -- -- 82
2019-04-22 06:00:00 17.8 4 Norte 8 Norte 0 -- -- 81
2019-04-22 05:00:00 17.7 4 Norte 6 Norte 0 -- -- 81
2019-04-22 04:00:00 18.1 4 Norte 12 Noroeste 0 -- -- 80
2019-04-22 03:00:00 18.1 3 Norte 10 Norte 0 -- -- 80
2019-04-22 02:00:00 18.4 6 Noroeste 10 Sur 0 -- -- 80
2019-04-22 01:00:00 18.8 5 Sudeste 9 Sudeste 0 -- -- 79
2019-04-22 00:00:00 18.8 4 Este 10 Este 0 -- -- 78
2019-04-21 23:00:00 19 6 Este 10 Sudeste 0 -- -- 77
2019-04-21 22:00:00 19 5 Este 9 Sudeste 0 -- -- 77
2019-04-21 21:00:00 19.1 9 Sur 18 Sur 0 -- -- 75
2019-04-21 20:00:00 19.4 14 Sur 17 Sur 0 -- -- 74
2019-04-21 19:00:00 19.8 15 Sur 17 Sur 0 -- -- 70
2019-04-21 18:00:00 19.8 15 Sudeste 18 Sudeste 0 -- -- 74
2019-04-21 17:00:00 19.7 13 Sudeste 21 Sudeste 0 -- -- 73
2019-04-21 16:00:00 19.7 18 Sudeste 24 Sudeste 0 -- -- 72
2019-04-21 15:00:00 19.6 18 Sudeste 22 Sudeste 0 -- -- 72
2019-04-21 14:00:00 20 14 Sudeste 18 Sudeste 0 -- -- 66
2019-04-21 13:00:00 19.6 15 Sudeste 18 Sudeste 0 -- -- 71
2019-04-21 12:00:00 19.5 10 Sur 12 Sur 0 -- -- 68
2019-04-21 11:00:00 19.7 6 Sur 9 Sur 0 -- -- 70
2019-04-21 10:00:00 20 4 Sur 11 Este 0 -- -- 67
2019-04-21 09:00:00 19.7 3 Este 10 Nordeste 0 -- -- 68
2019-04-21 08:00:00 17.9 5 Nordeste 10 Nordeste 0 -- -- 74
2019-04-21 07:00:00 17.2 4 Norte 9 Norte 0 -- -- 74
2019-04-21 06:00:00 17.3 5 Norte 8 Norte 0 -- -- 73
2019-04-21 05:00:00 18.1 4 Este 9 Este 0 -- -- 70
2019-04-21 04:00:00 18 5 Nordeste 8 Este 0 -- -- 72
2019-04-21 03:00:00 18.3 4 Nordeste 15 Este 0 -- -- 73
2019-04-21 02:00:00 18.7 6 Este 19 Nordeste 0 -- -- 70
2019-04-21 01:00:00 19 10 Nordeste 19 Nordeste 0 -- -- 66
2019-04-21 00:00:00 19.3 9 Noroeste 23 Noroeste 0 -- -- 63
2019-04-20 23:00:00 18.9 15 Sudoeste 23 Oeste 0 -- -- 71
2019-04-20 22:00:00 18.8 6 Sur 22 Sudeste 0 -- -- 70
2019-04-20 21:00:00 19.3 12 Sudeste 20 Este 0 -- -- 68
2019-04-20 20:00:00 20.3 4 Oeste 24 Sudoeste 0 -- -- 67
2019-04-20 19:00:00 19.3 16 Sudoeste 23 Sudoeste 0 -- -- 70
2019-04-20 18:00:00 19 18 Sudoeste 21 Sudoeste 0 -- -- 71
2019-04-20 17:00:00 19.2 15 Sudeste 27 Sudeste 0 -- -- 68
2019-04-20 16:00:00 18.8 25 Sudeste 33 Sudeste 0 -- -- 71
2019-04-20 15:00:00 19.2 27 Sudeste 33 Sudeste 0 -- -- 70
2019-04-20 14:00:00 19.7 15 Sudeste 20 Sudeste 0 -- -- 63
2019-04-20 13:00:00 19.7 10 Sudeste 13 Sudeste 0 -- -- 60
2019-04-20 12:00:00 19.1 10 Sudoeste 17 Sudoeste 0 -- -- 63
2019-04-20 11:00:00 19.4 8 Sur 12 Sudeste 0 -- -- 62
2019-04-20 10:00:00 20 6 Sudeste 12 Sudeste 0 -- -- 58
2019-04-20 09:00:00 18.8 6 Nordeste 9 Norte 0 -- -- 64
2019-04-20 08:00:00 16.6 4 Norte 9 Norte 0 -- -- 74
2019-04-20 07:00:00 16.6 5 Norte 8 Norte 0 -- -- 73
2019-04-20 06:00:00 16.9 5 Norte 12 Norte 0 -- -- 72
2019-04-20 05:00:00 17.3 6 Nordeste 10 Nordeste 0 -- -- 71
2019-04-20 04:00:00 17.1 6 Nordeste 11 Norte 0 -- -- 73
2019-04-20 03:00:00 17.5 6 Norte 10 Norte 0 -- -- 72
2019-04-20 02:00:00 17.8 6 Nordeste 16 Norte 0 -- -- 71
2019-04-20 01:00:00 17.9 7 Nordeste 21 Sur 0 -- -- 70
2019-04-20 00:00:00 18.5 18 Sudeste 23 Sudeste 0 -- -- 71
2019-04-19 23:00:00 18.5 15 Sur 19 Sudeste 0 -- -- 71
2019-04-19 22:00:00 18.9 14 Sudeste 17 Sudeste 0 -- -- 69
2019-04-19 21:00:00 19.5 6 Sudeste 13 Sudeste 0 -- -- 63
2019-04-19 20:00:00 20.9 2 Sur 29 Sudoeste 0 -- -- 61
2019-04-19 19:00:00 19.3 24 Sudoeste 31 Sudoeste 0 -- -- 70
2019-04-19 18:00:00 19.2 19 Sudoeste 27 Sudeste 0 -- -- 69
2019-04-19 17:00:00 19.2 25 Sudeste 31 Sudeste 0 -- -- 68
2019-04-19 16:00:00 20.2 7 Sur 11 Sudoeste 0 -- -- 65
2019-04-19 15:00:00 19.6 10 Sudoeste 36 Sudoeste 0 -- -- 67
2019-04-19 14:00:00 19.3 24 Sudoeste 31 Sudoeste 0 -- -- 67
2019-04-19 13:00:00 19.2 17 Sudoeste 23 Sudoeste 0 -- -- 67
2019-04-19 12:00:00 19 12 Sur 21 Sudeste 0 -- -- 67
2019-04-19 11:00:00 19 14 Sudeste 18 Sudeste 0 -- -- 67
2019-04-19 10:00:00 19.8 8 Sudeste 13 Sur 0 -- -- 65
2019-04-19 09:00:00 20.9 2 Norte 9 Norte 0 -- -- 62
2019-04-19 08:00:00 17.5 4 Nordeste 17 Sur 0 -- -- 69
2019-04-19 07:00:00 18.4 15 Sudeste 24 Sur 0 -- -- 71
2019-04-19 06:00:00 18.4 14 Sur 19 Sur 0 -- -- 69
2019-04-19 05:00:00 18.5 16 Sudeste 23 Sudeste 0 -- -- 68
2019-04-19 04:00:00 18.7 15 Sudeste 19 Sur 0 -- -- 66
2019-04-19 03:00:00 18.7 13 Sur 18 Sur 0 -- -- 64
2019-04-19 02:00:00 18.9 15 Sur 20 Sudeste 0 -- -- 65
2019-04-19 01:00:00 18.9 13 Este 22 Sur 0 -- -- 66
2019-04-19 00:00:00 19.3 9 Sur 12 Sur 0 -- -- 63
2019-04-18 23:00:00 19.4 6 Sudeste 9 Este 0 -- -- 64
2019-04-18 22:00:00 19.3 2 Sur 20 Oeste 0 -- -- 65
2019-04-18 21:00:00 19.4 14 Sudoeste 17 Sudoeste 0 -- -- 67
2019-04-18 20:00:00 19.8 13 Sudeste 29 Sur 0 -- -- 67
2019-04-18 19:00:00 19.8 24 Sudeste 32 Sudeste 0 -- -- 70
2019-04-18 18:00:00 20.2 20 Sudeste 28 Sudeste 0 -- -- 66
2019-04-18 17:00:00 20.3 17 Sudeste 21 Sur 0 -- -- 63
2019-04-18 16:00:00 20.1 13 Sur 32 Sudoeste 0 -- -- 67
2019-04-18 15:00:00 19.6 21 Sudoeste 27 Sudoeste 0 -- -- 68
2019-04-18 14:00:00 19.6 21 Sudoeste 27 Sudoeste 0 -- -- 67
2019-04-18 13:00:00 19.5 16 Sur 21 Sur 0 -- -- 66
2019-04-18 12:00:00 19.6 13 Sudeste 16 Sudeste 0 -- -- 67
2019-04-18 11:00:00 19.8 10 Sur 14 Sur 0 -- -- 68
2019-04-18 10:00:00 20.4 5 Sur 7 Sur 0 -- -- 66
2019-04-18 09:00:00 18.3 4 Norte 6 Nordeste 0 -- -- 75
2019-04-18 08:00:00 17.7 3 Nordeste 6 Norte 0 -- -- 76
2019-04-18 07:00:00 18 4 Norte 9 Este 0 -- -- 74
2019-04-18 06:00:00 18 5 Norte 9 Nordeste 0 -- -- 74
2019-04-18 05:00:00 18.3 4 Nordeste 6 Nordeste 0 -- -- 70
2019-04-18 04:00:00 18.4 4 Norte 8 Este 0 -- -- 65
2019-04-18 03:00:00 18.8 4 Nordeste 11 Nordeste 0 -- -- 73
2019-04-18 02:00:00 19.1 3 Norte 17 Noroeste 0 -- -- 65
2019-04-18 01:00:00 19 5 Norte 11 Sudoeste 0 -- -- 79
2019-04-18 00:00:00 19.3 8 Sudoeste 11 Sudoeste 0 -- -- 80
2019-04-17 23:00:00 19.3 3 Sudeste 11 Sudeste 0 -- -- 78
2019-04-17 22:00:00 19.4 6 Sudeste 22 Sudeste 0 -- -- 78
2019-04-17 21:00:00 19.2 19 Sudeste 23 Sudeste 0 -- -- 79
2019-04-17 20:00:00 19.5 15 Sudeste 18 Sudeste 0 -- -- 78
2019-04-17 19:00:00 19.6 9 Sudoeste 18 Oeste 0 -- -- 77
2019-04-17 18:00:00 19.7 10 Sudoeste 13 Sudoeste 0 -- -- 76
2019-04-17 17:00:00 19.8 9 Sudoeste 13 Sur 0 -- -- 75
2019-04-17 16:00:00 20 10 Sur 14 Sur 0 -- -- 73
2019-04-17 15:00:00 19.8 12 Sur 17 Sudeste 0 -- -- 73
2019-04-17 14:00:00 19.7 12 Sudeste 18 Sudeste 0 -- -- 76
2019-04-17 13:00:00 19.4 16 Sudeste 21 Sudeste 0 -- -- 74
2019-04-17 12:00:00 19.5 16 Sudeste 19 Sudeste 0 -- -- 73
2019-04-17 11:00:00 19.5 15 Sudeste 18 Sudeste 0 -- -- 71
2019-04-17 10:00:00 19.5 9 Sudeste 12 Sudeste 0 -- -- 72
2019-04-17 09:00:00 19.1 4 Este 9 Este 0 -- -- 74
2019-04-17 08:00:00 18.6 0 Calma 5 Este 0 -- -- 77
2019-04-17 07:00:00 18.4 3 Norte 8 Norte 0 -- -- 80
2019-04-17 06:00:00 18.5 4 Nordeste 21 Este 0 -- -- 80
2019-04-17 05:00:00 18.7 10 Este 24 Este 0 -- -- 83
2019-04-17 04:00:00 18.7 11 Este 21 Sudeste 0 -- -- 83
2019-04-17 03:00:00 18.7 11 Este 20 Sudeste 0 -- -- 82
2019-04-17 02:00:00 18.8 4 Este 10 Este 0 -- -- 80
2019-04-17 01:00:00 19.1 5 Este 16 Oeste 0 -- -- 79
2019-04-17 00:00:00 19.3 8 Noroeste 27 Noroeste 0 -- -- 80
2019-04-16 23:00:00 19.5 20 Noroeste 42 Oeste 0 -- -- 81
2019-04-16 22:00:00 19.5 22 Noroeste 35 Noroeste 0 -- -- 80
2019-04-16 21:00:00 19.5 17 Noroeste 30 Oeste 0 -- -- 79
2019-04-16 20:00:00 20 24 Oeste 35 Oeste 0 -- -- 77
2019-04-16 19:00:00 20.4 29 Oeste 37 Oeste 0 -- -- 75
2019-04-16 18:00:00 20.6 25 Oeste 31 Oeste 0 -- -- 77
2019-04-16 17:00:00 20.8 22 Oeste 26 Oeste 0 -- -- 77
2019-04-16 16:00:00 20.1 22 Oeste 26 Oeste 0 -- -- 80
2019-04-16 15:00:00 19.7 12 Oeste 15 Sudoeste 0 -- -- 78
2019-04-16 14:00:00 19.4 12 Sudeste 22 Sudeste 0 -- -- 78
2019-04-16 13:00:00 19.2 18 Sudeste 22 Sudeste 0 -- -- 78
2019-04-16 12:00:00 19.5 12 Sudeste 14 Sudeste 0 -- -- 79
2019-04-16 11:00:00 19 10 Sudeste 13 Sudeste 0 -- -- 83
2019-04-16 10:00:00 18.6 9 Sudeste 13 Sudeste 0 -- -- 84
2019-04-16 09:00:00 18.8 2 Noroeste 9 Norte 0 -- -- 84
2019-04-16 08:00:00 17.4 8 Norte 10 Norte 0 -- -- 86
2019-04-16 07:00:00 17.4 3 Norte 6 Nordeste 0 -- -- 86
2019-04-16 06:00:00 17.7 4 Norte 10 Norte 0 -- -- 85
2019-04-16 05:00:00 18 3 Norte 9 Norte 0 -- -- 84
2019-04-16 04:00:00 18.3 6 Norte 9 Norte 0 -- -- 83
2019-04-16 03:00:00 18.6 2 Nordeste 8 Norte 0 -- -- 83
2019-04-16 02:00:00 18.7 5 Norte 7 Norte 0 -- -- 83
2019-04-16 01:00:00 19 2 Sur 5 Sudeste 0 -- -- 84
2019-04-16 00:00:00 19.1 5 Sudeste 7 Sudeste 0 -- -- 82
2019-04-15 23:00:00 19.3 5 Sudeste 6 Sudeste 0 -- -- 81
2019-04-15 22:00:00 19.4 2 Sur 11 Oeste 0 -- -- 80
2019-04-15 21:00:00 19.8 8 Oeste 16 Oeste 0 -- -- 79
2019-04-15 20:00:00 20 14 Oeste 21 Oeste 0 -- -- 79
2019-04-15 19:00:00 20.5 17 Oeste 20 Oeste 0 -- -- 77
2019-04-15 18:00:00 19.8 17 Sudoeste 22 Sudoeste 0 -- -- 78
2019-04-15 17:00:00 19.9 16 Sudoeste 19 Sudoeste 0 -- -- 76
2019-04-15 16:00:00 19.8 12 Sudoeste 16 Sudoeste 0 -- -- 75
2019-04-15 15:00:00 20 10 Sudoeste 19 Sudoeste 0 -- -- 75
2019-04-15 14:00:00 19.7 16 Oeste 19 Oeste 0 -- -- 77
2019-04-15 13:00:00 19.7 15 Oeste 18 Oeste 0 -- -- 78
2019-04-15 12:00:00 19.1 10 Sur 18 Sudeste 0 -- -- 78
2019-04-15 11:00:00 19.2 14 Sudeste 21 Sudeste 0 -- -- 78
2019-04-15 10:00:00 19.2 12 Sudeste 17 Sudeste 0 -- -- 75
2019-04-15 09:00:00 18.5 4 Norte 6 Norte 0 -- -- 78
2019-04-15 08:00:00 17.5 5 Norte 11 Norte 0 -- -- 80
2019-04-15 07:00:00 17.9 5 Nordeste 9 Nordeste 0 -- -- 79
2019-04-15 06:00:00 18.3 4 Este 9 Norte 0 -- -- 79
2019-04-15 05:00:00 18.3 4 Este 14 Este 0 -- -- 80
2019-04-15 04:00:00 18.5 6 Sur 12 Sudoeste 0 -- -- 82
2019-04-15 03:00:00 18.6 9 Oeste 14 Oeste 0 -- -- 83
2019-04-15 02:00:00 18.7 6 Oeste 12 Oeste 0 -- -- 81
2019-04-15 01:00:00 18.6 6 Sudoeste 9 Sudoeste 0 -- -- 82
2019-04-15 00:00:00 18.6 6 Sur 9 Sudeste 0 -- -- 81
2019-04-14 23:00:00 18.6 8 Sudeste 19 Sudeste 0 -- -- 82
2019-04-14 22:00:00 18.7 14 Sudeste 20 Sudeste 0 -- -- 82
2019-04-14 21:00:00 18.9 14 Este 19 Sudeste 0 -- -- 81
2019-04-14 20:00:00 20.1 9 Sudeste 15 Oeste 0 -- -- 78
2019-04-14 19:00:00 20.8 12 Oeste 22 Oeste 0 -- -- 76
2019-04-14 18:00:00 20.3 19 Oeste 32 Oeste 0 -- -- 77
2019-04-14 17:00:00 19.9 25 Oeste 29 Oeste 0 -- -- 78
2019-04-14 16:00:00 19.9 13 Oeste 19 Oeste 0 -- -- 76
2019-04-14 15:00:00 19.8 8 Sur 13 Sudeste 0 -- -- 72
2019-04-14 14:00:00 19.8 8 Sur 10 Sur 0 -- -- 72
2019-04-14 13:00:00 19.5 7 Sudoeste 15 Oeste 0 -- -- 73
2019-04-14 12:00:00 19.8 13 Oeste 17 Oeste 0 -- -- 76
2019-04-14 11:00:00 19.7 12 Oeste 16 Oeste 0 -- -- 73
2019-04-14 10:00:00 21.5 4 Sudeste 5 Norte 0 -- -- 66
2019-04-14 09:00:00 20.5 3 Norte 7 Norte 0 -- -- 76
2019-04-14 08:00:00 17.3 3 Norte 10 Norte 0 -- -- 83
2019-04-14 07:00:00 17.3 5 Norte 6 Norte 0 -- -- 84
2019-04-14 06:00:00 17.5 2 Norte 11 Norte 0 -- -- 83
2019-04-14 05:00:00 17.8 8 Norte 15 Norte 0 -- -- 83
2019-04-14 04:00:00 17.8 5 Norte 9 Este 0 -- -- 84
2019-04-14 03:00:00 18.3 8 Este 13 Este 0 -- -- 82
2019-04-14 02:00:00 18.6 0 Calma 12 Oeste 0 -- -- 81
2019-04-14 01:00:00 18.9 11 Oeste 14 Oeste 0 -- -- 80
2019-04-14 00:00:00 19 9 Noroeste 13 Oeste 0 -- -- 79
2019-04-13 23:00:00 19 2 Oeste 12 Sur 0 -- -- 78
2019-04-13 22:00:00 19.1 12 Sur 16 Sudeste 0 -- -- 78
2019-04-13 21:00:00 19.4 13 Sudeste 18 Sudeste 0 -- -- 75
2019-04-13 20:00:00 19.9 13 Sudeste 15 Sudeste 0 -- -- 70
2019-04-13 19:00:00 21.9 3 Sur 13 Sudoeste 0 -- -- 62
2019-04-13 18:00:00 20.2 14 Oeste 24 Oeste 0 -- -- 72
2019-04-13 17:00:00 20.2 9 Sudoeste 15 Sur 0 -- -- 73
2019-04-13 16:00:00 19.3 15 Sur 22 Sur 0 -- -- 73
2019-04-13 15:00:00 19.7 15 Sudeste 20 Sudeste 0 -- -- 71
2019-04-13 14:00:00 19.7 10 Sudeste 17 Sudoeste 0 -- -- 69
2019-04-13 13:00:00 19.5 13 Oeste 17 Oeste 0 -- -- 70
2019-04-13 12:00:00 19.3 12 Oeste 15 Oeste 0 -- -- 72
2019-04-13 11:00:00 20 4 Sudoeste 5 Sudoeste 0 -- -- 67
2019-04-13 10:00:00 20.9 3 Sudeste 5 Sur 0 -- -- 63
2019-04-13 09:00:00 19.3 5 Norte 12 Norte 0 -- -- 68
2019-04-13 08:00:00 16.9 9 Norte 13 Norte 0 -- -- 75
2019-04-13 07:00:00 17.2 6 Nordeste 10 Nordeste 0 -- -- 74
2019-04-13 06:00:00 17.1 5 Norte 11 Norte 0 -- -- 74
2019-04-13 05:00:00 17.1 6 Norte 10 Norte 0 -- -- 74
2019-04-13 04:00:00 17.5 3 Nordeste 10 Este 0 -- -- 74
2019-04-13 03:00:00 18.1 4 Sur 11 Sudoeste 0 -- -- 74
2019-04-13 02:00:00 18.5 9 Sudoeste 12 Sudoeste 0 -- -- 72
2019-04-13 01:00:00 18.5 5 Sudoeste 11 Sudeste 0 -- -- 70
2019-04-13 00:00:00 18.5 4 Nordeste 8 Este 0 -- -- 72
2019-04-12 23:00:00 18.6 3 Sudoeste 10 Oeste 0 -- -- 70
2019-04-12 22:00:00 18.7 9 Oeste 13 Oeste 0 -- -- 72
2019-04-12 21:00:00 18.6 6 Sur 21 Sudeste 0 -- -- 71
2019-04-12 20:00:00 19.3 17 Sudeste 22 Sudeste 0 -- -- 68
2019-04-12 19:00:00 20.2 9 Sudeste 17 Sudoeste 0 -- -- 66
2019-04-12 18:00:00 19.7 15 Sudoeste 22 Oeste 0 -- -- 66
2019-04-12 17:00:00 20.2 14 Oeste 17 Sur 0 -- -- 66
2019-04-12 16:00:00 19.2 16 Sur 26 Sur 0 -- -- 68
2019-04-12 15:00:00 19.5 15 Sudeste 19 Sudeste 0 -- -- 67
2019-04-12 14:00:00 20.4 5 Sudeste 23 Sudoeste 0 -- -- 63
2019-04-12 13:00:00 19.1 17 Sudoeste 20 Sudoeste 0 -- -- 68
2019-04-12 12:00:00 18.9 12 Sudoeste 14 Sudoeste 0 -- -- 70
2019-04-12 11:00:00 19.1 8 Sur 12 Sur 0 -- -- 70
2019-04-12 10:00:00 18.6 8 Sudeste 12 Sudeste 0 -- -- 72
2019-04-12 09:00:00 19 3 Nordeste 9 Norte 0 -- -- 73
2019-04-12 08:00:00 16.8 5 Norte 9 Norte 0 -- -- 77
2019-04-12 07:00:00 16.9 4 Norte 7 Nordeste 0 -- -- 76
2019-04-12 06:00:00 17.3 5 Norte 7 Norte 0 -- -- 75
2019-04-12 05:00:00 17.4 6 Norte 9 Norte 0 -- -- 75
2019-04-12 04:00:00 17.7 4 Nordeste 16 Este 0 -- -- 74
2019-04-12 03:00:00 17.9 3 Nordeste 10 Nordeste 0 -- -- 75
2019-04-12 02:00:00 18 8 Norte 11 Norte 0 -- -- 74
2019-04-12 01:00:00 18.3 3 Nordeste 10 Sudeste 0 -- -- 73
2019-04-12 00:00:00 18.7 7 Sudeste 11 Sudeste 0 -- -- 72
2019-04-11 23:00:00 18.8 7 Sudeste 16 Sudeste 0 -- -- 74
2019-04-11 22:00:00 18.8 15 Sudeste 19 Sudeste 0 -- -- 74
2019-04-11 21:00:00 19 11 Sudeste 19 Sur 0 -- -- 73
2019-04-11 20:00:00 19.2 15 Sur 19 Sur 0 -- -- 72
2019-04-11 19:00:00 19.5 13 Sudoeste 21 Sur 0 -- -- 68
2019-04-11 18:00:00 19.2 19 Sur 22 Sur 0 -- -- 69
2019-04-11 17:00:00 19 16 Sur 21 Sur 0 -- -- 69
2019-04-11 16:00:00 19.2 17 Sur 24 Sur 0 -- -- 71
2019-04-11 15:00:00 19.1 16 Sur 22 Sur 0 -- -- 69
2019-04-11 14:00:00 18.9 16 Sur 20 Sur 0 -- -- 68
2019-04-11 13:00:00 19.1 10 Sur 14 Sudoeste 0 -- -- 67
2019-04-11 12:00:00 19 10 Sur 14 Sur 0 -- -- 66
2019-04-11 11:00:00 19.2 8 Sur 10 Sur 0 -- -- 67
2019-04-11 10:00:00 21.1 2 Sur 6 Este 0 -- -- 61
2019-04-11 09:00:00 19.6 2 Nordeste 6 Norte 0 -- -- 68
2019-04-11 08:00:00 16.8 5 Norte 9 Norte 0 -- -- 74
2019-04-11 07:00:00 16.7 3 Norte 5 Norte 0 -- -- 74
2019-04-11 06:00:00 17.2 4 Norte 5 Norte 0 -- -- 72
2019-04-11 05:00:00 17.6 3 Nordeste 5 Este 0 -- -- 72
2019-04-11 04:00:00 18 4 Este 13 Sudeste 0 -- -- 70
2019-04-11 03:00:00 18.3 10 Sudeste 20 Sur 0 -- -- 72
2019-04-11 02:00:00 18.8 14 Sur 17 Sur 0 -- -- 73
2019-04-11 01:00:00 18.9 8 Sur 22 Sur 0 -- -- 70
2019-04-11 00:00:00 18.9 17 Sur 25 Sudoeste 0 -- -- 73
2019-04-10 23:00:00 19 21 Sudoeste 27 Sudoeste 0 -- -- 71
2019-04-10 22:00:00 19 17 Sur 22 Sur 0 -- -- 71
2019-04-10 21:00:00 18.9 17 Sur 20 Sur 0 -- -- 70
2019-04-10 20:00:00 19.2 15 Sur 24 Sur 0 -- -- 69
2019-04-10 19:00:00 19.5 18 Sur 27 Sur 0 -- -- 68
2019-04-10 18:00:00 19.4 23 Sur 27 Sur 0 -- -- 67
2019-04-10 17:00:00 19.3 20 Sur 25 Sur 0 -- -- 67
2019-04-10 16:00:00 19.2 19 Sur 24 Sur 0 -- -- 67
2019-04-10 15:00:00 19.1 18 Sur 22 Sur 0 -- -- 65
2019-04-10 14:00:00 19.2 13 Sur 17 Sur 0 -- -- 64
2019-04-10 13:00:00 19.1 13 Sudoeste 19 Sudoeste 0 -- -- 65
2019-04-10 12:00:00 19.1 10 Sudoeste 18 Sudoeste 0 -- -- 66
2019-04-10 11:00:00 19.1 15 Sudoeste 21 Sudoeste 0 -- -- 66
2019-04-10 10:00:00 19.2 6 Sudoeste 14 Sudoeste 0 -- -- 68
2019-04-10 09:00:00 19.6 6 Sur 11 Sudoeste 0 -- -- 65
2019-04-10 08:00:00 18 0 Calma 5 Oeste 0 -- -- 69
2019-04-10 07:00:00 18 2 Oeste 7 Sudeste 0 -- -- 68
2019-04-10 06:00:00 18.1 6 Sudeste 15 Sur 0 -- -- 70
2019-04-10 05:00:00 18.3 8 Sur 13 Oeste 0 -- -- 72
2019-04-10 04:00:00 18.5 8 Oeste 14 Oeste 0 -- -- 73
2019-04-10 03:00:00 18.3 3 Sudoeste 10 Sur 0 -- -- 73
2019-04-10 02:00:00 18.3 5 Sudeste 9 Sur 0 -- -- 74
2019-04-10 01:00:00 18.5 4 Sur 8 Sur 0 -- -- 76
2019-04-10 00:00:00 18.7 3 Sudeste 9 Sudeste 0 -- -- 78
2019-04-09 23:00:00 18.9 6 Sur 22 Sur 0 -- -- 78
2019-04-09 22:00:00 19.1 14 Sur 17 Sur 0 -- -- 79
2019-04-09 21:00:00 19.1 13 Sur 18 Sur 0 -- -- 79
2019-04-09 20:00:00 19.4 15 Sudoeste 20 Sudoeste 0 -- -- 76
2019-04-09 19:00:00 19.6 15 Sur 19 Sur 0 -- -- 75
2019-04-09 18:00:00 19.4 17 Sur 20 Sur 0 -- -- 73
2019-04-09 17:00:00 19.5 13 Sur 17 Sur 0 -- -- 74
2019-04-09 16:00:00 19.6 13 Sudoeste 22 Sudoeste 0 -- -- 76
2019-04-09 15:00:00 19.4 18 Sudoeste 24 Sudoeste 0 -- -- 70
2019-04-09 14:00:00 19.2 18 Sudoeste 22 Sudoeste 0 -- -- 69
2019-04-09 13:00:00 19.1 14 Sudoeste 17 Oeste 0 -- -- 67
2019-04-09 12:00:00 19.2 12 Oeste 14 Oeste 0 -- -- 70
2019-04-09 11:00:00 19.4 7 Oeste 11 Oeste 0 -- -- 69
2019-04-09 10:00:00 19.9 7 Oeste 13 Oeste 0 -- -- 66
2019-04-09 09:00:00 19.5 5 Norte 8 Norte 0 -- -- 67
2019-04-09 08:00:00 17.4 4 Norte 8 Norte 0 -- -- 74
2019-04-09 07:00:00 17.1 4 Norte 8 Norte 0 -- -- 75
2019-04-09 06:00:00 17.5 3 Norte 9 Norte 0 -- -- 75
2019-04-09 05:00:00 17.7 5 Norte 10 Norte 0 -- -- 74
2019-04-09 04:00:00 17.2 5 Norte 8 Norte 0 -- -- 76
2019-04-09 03:00:00 17.5 4 Norte 6 Norte 0 -- -- 75
2019-04-09 02:00:00 17.9 4 Norte 8 Norte 0 -- -- 75
2019-04-09 01:00:00 18 6 Norte 8 Norte 0 -- -- 75
2019-04-09 00:00:00 18.7 5 Este 21 Sudeste 0 -- -- 73
2019-04-08 23:00:00 19 12 Sudeste 15 Sur 0 -- -- 74
2019-04-08 22:00:00 19.3 5 Este 15 Sur 0 -- -- 72
2019-04-08 21:00:00 19.1 14 Sur 26 Sudoeste 0 -- -- 75
2019-04-08 20:00:00 19.3 18 Sudoeste 25 Sudoeste 0 -- -- 73
2019-04-08 19:00:00 19.5 12 Oeste 20 Sudoeste 0 -- -- 71
2019-04-08 18:00:00 19.4 9 Sur 19 Sudeste 0 -- -- 74
2019-04-08 17:00:00 19.1 15 Sudeste 22 Sudeste 0 -- -- 74
2019-04-08 16:00:00 18.9 19 Sudeste 23 Sudeste 0 -- -- 75
2019-04-08 15:00:00 19.1 16 Sudeste 22 Sudeste 0 -- -- 74
2019-04-08 14:00:00 18.9 16 Sudeste 20 Sudeste 0 -- -- 74
2019-04-08 13:00:00 19.1 12 Sudeste 15 Sudeste 0 -- -- 74
2019-04-08 12:00:00 19.1 8 Sudoeste 12 Sudoeste 0 -- -- 71
2019-04-08 11:00:00 19.4 6 Sudoeste 8 Sudoeste 0 -- -- 70
2019-04-08 10:00:00 21.6 2 Sur 4 Norte 0 -- -- 62
2019-04-08 09:00:00 20 3 Norte 11 Norte 0 -- -- 69
2019-04-08 08:00:00 17.1 9 Norte 12 Norte 0 -- -- 75
2019-04-08 07:00:00 17 6 Norte 9 Norte 0 -- -- 76
2019-04-08 06:00:00 17.3 5 Norte 8 Norte 0 -- -- 75
2019-04-08 05:00:00 17.7 5 Nordeste 9 Nordeste 0 -- -- 74
2019-04-08 04:00:00 18 6 Este 12 Este 0 -- -- 74
2019-04-08 03:00:00 18.3 8 Este 11 Este 0 -- -- 74
2019-04-08 02:00:00 18.4 3 Sudeste 4 Sudeste 0 -- -- 73
2019-04-08 01:00:00 18.3 2 Norte 4 Norte 0 -- -- 73
2019-04-08 00:00:00 18.4 3 Norte 7 Sudeste 0 -- -- 73
2019-04-07 23:00:00 18.8 7 Sudeste 22 Sudeste 0 -- -- 72
2019-04-07 22:00:00 18.9 14 Sudeste 21 Este 0 -- -- 70
2019-04-07 21:00:00 18.8 13 Este 23 Sudeste 0 -- -- 69
2019-04-07 20:00:00 19.2 18 Sudeste 24 Sudeste 0 -- -- 70
2019-04-07 19:00:00 19.4 20 Sudeste 24 Sudeste 0 -- -- 63
2019-04-07 18:00:00 19.4 18 Sudeste 23 Sudeste 0 -- -- 64
2019-04-07 17:00:00 19.4 13 Sur 15 Sur 0 -- -- 65
2019-04-07 16:00:00 19.5 8 Sur 13 Sur 0 -- -- 61
2019-04-07 15:00:00 19.5 8 Sur 13 Sur 0 -- -- 62
2019-04-07 14:00:00 19.6 6 Sur 9 Sur 0 -- -- 62
2019-04-07 13:00:00 19.1 7 Sur 12 Sudoeste 0 -- -- 65
2019-04-07 12:00:00 19.1 7 Sur 10 Sur 0 -- -- 64
2019-04-07 11:00:00 19.7 5 Sur 8 Sudeste 0 -- -- 62
2019-04-07 10:00:00 21.2 2 Sudeste 6 Nordeste 0 -- -- 57
2019-04-07 09:00:00 18.8 5 Norte 9 Norte 0 -- -- 63
2019-04-07 08:00:00 16.3 5 Norte 7 Norte 0 -- -- 69
2019-04-07 07:00:00 16.2 5 Norte 6 Norte 0 -- -- 68
2019-04-07 06:00:00 16.5 3 Norte 5 Norte 0 -- -- 67
2019-04-07 05:00:00 16.8 3 Norte 7 Nordeste 0 -- -- 66
2019-04-07 04:00:00 17.1 4 Norte 9 Norte 0 -- -- 66
2019-04-07 03:00:00 17.3 5 Norte 6 Norte 0 -- -- 66
2019-04-07 02:00:00 17.6 2 Norte 8 Este 0 -- -- 66
2019-04-07 01:00:00 17.8 0 Calma 4 Nordeste 0 -- -- 68
2019-04-07 00:00:00 18.4 0 Calma 13 Oeste 0 -- -- 62
2019-04-06 23:00:00 18.7 14 Oeste 19 Sudoeste 0 -- -- 67
2019-04-06 22:00:00 18.8 10 Oeste 16 Oeste 0 -- -- 66
2019-04-06 21:00:00 18.7 6 Sudeste 22 Sur 0 -- -- 63
2019-04-06 20:00:00 18.9 22 Sudeste 29 Sudeste 0 -- -- 65
2019-04-06 19:00:00 19 27 Sudeste 39 Sudeste 0 -- -- 66
2019-04-06 18:00:00 19.3 31 Sudeste 40 Sudeste 0 -- -- 67
2019-04-06 17:00:00 21.3 12 Oeste 44 Oeste 0 -- -- 53
2019-04-06 16:00:00 20.2 27 Oeste 40 Oeste 0 -- -- 60
2019-04-06 15:00:00 20.9 5 Sudoeste 30 Sudeste 0 -- -- 52
2019-04-06 14:00:00 19.1 22 Sur 32 Sur 0 -- -- 64
2019-04-06 13:00:00 18.9 22 Sudeste 32 Sudeste 0 -- -- 62
2019-04-06 12:00:00 18.8 26 Sudeste 33 Sudeste 0 -- -- 59
2019-04-06 11:00:00 20.6 11 Norte 24 Noroeste 0 -- -- 42
2019-04-06 10:00:00 20.3 11 Noroeste 26 Oeste 0 -- -- 43
2019-04-06 09:00:00 19.1 8 Noroeste 13 Oeste 0 -- -- 52
2019-04-06 08:00:00 17.1 3 Norte 12 Norte 0 -- -- 51
2019-04-06 07:00:00 17.5 7 Norte 19 Norte 0 -- -- 48
2019-04-06 06:00:00 17.2 4 Norte 19 Noroeste 0 -- -- 51
2019-04-06 05:00:00 17.5 3 Norte 14 Noroeste 0 -- -- 55
2019-04-06 04:00:00 18.2 9 Noroeste 21 Norte 0 -- -- 53
2019-04-06 03:00:00 18.2 17 Noroeste 32 Noroeste 0 -- -- 56
2019-04-06 02:00:00 18.4 3 Nordeste 30 Noroeste 0 -- -- 53
2019-04-06 01:00:00 18.5 4 Noroeste 25 Noroeste 0 -- -- 56
2019-04-06 00:00:00 19 11 Noroeste 33 Noroeste 0 -- -- 48
2019-04-05 23:00:00 19.3 14 Noroeste 32 Noroeste 0 -- -- 49
2019-04-05 22:00:00 19.5 17 Norte 26 Norte 0 -- -- 49
2019-04-05 21:00:00 19.9 12 Noroeste 29 Oeste 0 -- -- 54
2019-04-05 20:00:00 20.9 9 Norte 39 Oeste 0 -- -- 50
2019-04-05 19:00:00 21.1 8 Este 21 Sudeste 0 -- -- 57
2019-04-05 18:00:00 21.1 12 Sudeste 24 Sudeste 0 -- -- 53
2019-04-05 17:00:00 20.4 19 Sudeste 29 Sudeste 0 -- -- 63
2019-04-05 16:00:00 20.2 22 Sudeste 27 Sudeste 0 -- -- 63
2019-04-05 15:00:00 20.8 14 Sur 21 Sudeste 0 -- -- 59
2019-04-05 14:00:00 21.7 9 Sur 42 Oeste 0 -- -- 47
2019-04-05 13:00:00 21.9 18 Noroeste 48 Oeste 0 -- -- 43
2019-04-05 12:00:00 19.7 28 Oeste 41 Oeste 0 -- -- 61
2019-04-05 11:00:00 20.4 10 Oeste 28 Oeste 0 -- -- 51
2019-04-05 10:00:00 21.2 3 Sudeste 5 Sudeste 0 -- -- 56
2019-04-05 09:00:00 20.7 0 Calma 10 Norte 0 -- -- 51
2019-04-05 08:00:00 16.4 6 Norte 8 Norte 0 -- -- 60
2019-04-05 07:00:00 16.4 5 Norte 12 Norte 0 -- -- 61
2019-04-05 06:00:00 16.6 5 Norte 10 Norte 0 -- -- 68
2019-04-05 05:00:00 17 5 Norte 10 Norte 0 -- -- 65
2019-04-05 04:00:00 17.7 3 Norte 8 Este 0 -- -- 70
2019-04-05 03:00:00 18 5 Este 9 Sudeste 0 -- -- 71
2019-04-05 02:00:00 17.6 6 Norte 9 Norte 0 -- -- 65
2019-04-05 01:00:00 17.6 4 Norte 8 Nordeste 0 -- -- 72
2019-04-05 00:00:00 18.2 5 Nordeste 14 Sudeste 0 -- -- 73
2019-04-04 23:00:00 18.4 8 Sudeste 15 Sudeste 0 -- -- 73
2019-04-04 22:00:00 18.4 13 Sudeste 19 Este 0 -- -- 72
2019-04-04 21:00:00 20 9 Norte 19 Norte 0 -- -- 49
2019-04-04 20:00:00 20 13 Sudeste 25 Sudeste 0 -- -- 65
2019-04-04 19:00:00 20.5 8 Sudeste 13 Sudeste 0 -- -- 65
2019-04-04 18:00:00 20.1 7 Sudoeste 30 Sur 0 -- -- 67
2019-04-04 17:00:00 18.8 23 Sur 28 Sur 0 -- -- 71
2019-04-04 16:00:00 18.7 16 Sur 20 Sur 0 -- -- 69
2019-04-04 15:00:00 18.7 13 Sudoeste 16 Sur 0 -- -- 67
2019-04-04 14:00:00 18.8 10 Sudeste 15 Sudeste 0 -- -- 67
2019-04-04 13:00:00 18.3 11 Sudeste 15 Sur 0 -- -- 71
2019-04-04 12:00:00 18.6 10 Sur 15 Sur 0 -- -- 69
2019-04-04 11:00:00 18.7 7 Sur 12 Oeste 0 -- -- 68
2019-04-04 10:00:00 18.9 11 Oeste 18 Oeste 0 -- -- 65
2019-04-04 09:00:00 18.1 13 Noroeste 25 Noroeste 0 -- -- 75
2019-04-04 08:00:00 17.3 13 Noroeste 27 Oeste 0 -- -- 78
2019-04-04 07:00:00 17.7 18 Oeste 26 Oeste 0 -- -- 78
2019-04-04 06:00:00 17.8 19 Oeste 26 Oeste 0 -- -- 76
2019-04-04 05:00:00 18 17 Oeste 26 Oeste 0 -- -- 76
2019-04-04 04:00:00 18 18 Sudoeste 28 Sudoeste 0 -- -- 75
2019-04-04 03:00:00 18.4 18 Oeste 31 Sudoeste 0 -- -- 73
2019-04-04 02:00:00 18.7 17 Sudeste 22 Sudeste 0 -- -- 73
2019-04-04 01:00:00 18.6 5 Sudeste 8 Sudeste 0 -- -- 73
2019-04-04 00:00:00 18.7 4 Sudeste 8 Este 0 -- -- 71
2019-04-03 23:00:00 19 8 Sudeste 15 Este 0 -- -- 64
2019-04-03 22:00:00 19.1 6 Sudeste 25 Sudeste 0 -- -- 64
2019-04-03 21:00:00 19.1 0 Calma 19 Oeste 0 -- -- 69
2019-04-03 20:00:00 19.6 15 Oeste 27 Oeste 0 -- -- 70
2019-04-03 19:00:00 19.7 25 Oeste 35 Sudoeste 0 -- -- 72
2019-04-03 18:00:00 19.1 21 Oeste 27 Oeste 0 -- -- 71
2019-04-03 17:00:00 19.3 19 Oeste 26 Oeste 0 -- -- 70
2019-04-03 16:00:00 19.4 23 Oeste 31 Oeste 0 -- -- 69
2019-04-03 15:00:00 19.9 15 Oeste 20 Oeste 0 -- -- 68
2019-04-03 14:00:00 19.7 14 Oeste 21 Oeste 0 -- -- 72
2019-04-03 13:00:00 19.1 16 Oeste 24 Oeste 0 -- -- 70
2019-04-03 12:00:00 18.1 20 Oeste 37 Oeste 0 -- -- 71
2019-04-03 11:00:00 20.2 4 Sudoeste 8 Nordeste 0 -- -- 74
2019-04-03 10:00:00 17.4 9 Este 13 Este 4 -- -- 83
2019-04-03 09:00:00 18.6 5 Nordeste 12 Nordeste 0 -- -- 78
2019-04-03 08:00:00 18 5 Nordeste 9 Nordeste 0 -- -- 79
2019-04-03 07:00:00 18.2 6 Nordeste 10 Este 0 -- -- 78
2019-04-03 06:00:00 17.9 4 Norte 10 Este 0 -- -- 80
2019-04-03 05:00:00 18 6 Nordeste 11 Nordeste 0 -- -- 80
2019-04-03 04:00:00 18.1 4 Nordeste 10 Este 0 -- -- 79
2019-04-03 03:00:00 18.4 5 Este 11 Este 0 -- -- 79
2019-04-03 02:00:00 18.6 4 Este 11 Este 0 -- -- 78
2019-04-03 01:00:00 18.7 6 Este 15 Este 0 -- -- 77
2019-04-03 00:00:00 18.9 14 Este 20 Este 0 -- -- 76
2019-04-02 23:00:00 19.2 12 Oeste 20 Oeste 0 -- -- 75
2019-04-02 22:00:00 19.4 17 Oeste 25 Oeste 0 -- -- 72
2019-04-02 21:00:00 19.3 20 Oeste 27 Oeste 0 -- -- 77
2019-04-02 20:00:00 19.7 21 Noroeste 32 Oeste 0 -- -- 74
2019-04-02 19:00:00 19.7 24 Oeste 31 Oeste 0 -- -- 75
2019-04-02 18:00:00 19.7 23 Oeste 33 Noroeste 0 -- -- 75
2019-04-02 17:00:00 20 21 Oeste 25 Oeste 0 -- -- 75
2019-04-02 16:00:00 19.7 14 Oeste 19 Oeste 0 -- -- 76
2019-04-02 15:00:00 19.2 12 Sudoeste 14 Sudoeste 0 -- -- 76
2019-04-02 14:00:00 19.1 14 Sudeste 23 Sudeste 0 -- -- 75
2019-04-02 13:00:00 19 22 Sudeste 26 Sudeste 0 -- -- 75
2019-04-02 12:00:00 19 22 Sudeste 29 Sudeste 0 -- -- 74
2019-04-02 11:00:00 20 19 Este 28 Este 0 -- -- 62
2019-04-02 10:00:00 19.4 14 Este 27 Este 0 -- -- 68
2019-04-02 09:00:00 18.9 9 Nordeste 15 Nordeste 0 -- -- 68
2019-04-02 08:00:00 17.7 4 Nordeste 11 Nordeste 0 -- -- 70
2019-04-02 07:00:00 17.4 3 Norte 7 Norte 0 -- -- 70
2019-04-02 06:00:00 17.6 3 Nordeste 14 Norte 0 -- -- 70
2019-04-02 05:00:00 17.7 3 Este 9 Sudeste 0 -- -- 72
2019-04-02 04:00:00 17.6 4 Este 9 Este 0 -- -- 74
2019-04-02 03:00:00 17.8 5 Sudeste 8 Este 0 -- -- 76
2019-04-02 02:00:00 18.1 3 Sudoeste 5 Oeste 0 -- -- 76
2019-04-02 01:00:00 18.2 2 Este 6 Noroeste 0 -- -- 74
2019-04-02 00:00:00 18 0 Calma 14 Sudeste 0 -- -- 75
2019-04-01 23:00:00 18.2 8 Este 16 Sudeste 0 -- -- 74
2019-04-01 22:00:00 18.3 11 Sudeste 18 Sudeste 0 -- -- 72
2019-04-01 21:00:00 18.3 15 Sudeste 21 Sudeste 0 -- -- 74
2019-04-01 20:00:00 18.4 14 Sudeste 20 Sudeste 0 -- -- 74
2019-04-01 19:00:00 18.9 15 Sudeste 22 Sudeste 0 -- -- 73
2019-04-01 18:00:00 18.8 19 Sudeste 22 Sudeste 0 -- -- 75
2019-04-01 17:00:00 18.7 19 Sudeste 23 Sudeste 0 -- -- 74
2019-04-01 16:00:00 18.9 16 Sudeste 19 Sudeste 0 -- -- 73
2019-04-01 15:00:00 18.9 14 Sudeste 18 Sudeste 0 -- -- 74
2019-04-01 14:00:00 18.9 13 Sur 19 Sudeste 0 -- -- 74
2019-04-01 13:00:00 18.8 16 Sudeste 22 Sudeste 0 -- -- 75
2019-04-01 12:00:00 18.7 20 Sudeste 23 Sudeste 0 -- -- 74
2019-04-01 11:00:00 19 14 Sudeste 17 Sudeste 0 -- -- 70
2019-04-01 10:00:00 19.2 12 Sudeste 15 Sudeste 0 -- -- 67
2019-04-01 09:00:00 18.7 4 Nordeste 7 Norte 0 -- -- 76
2019-04-01 08:00:00 16.9 3 Norte 9 Norte 0 -- -- 78
2019-04-01 07:00:00 17.2 5 Norte 9 Norte 0 -- -- 76
2019-04-01 06:00:00 17.4 6 Norte 13 Norte 0 -- -- 76
2019-04-01 05:00:00 17.6 8 Norte 12 Noroeste 0 -- -- 74
2019-04-01 04:00:00 17.8 8 Norte 13 Norte 0 -- -- 73
2019-04-01 03:00:00 17.7 5 Norte 9 Norte 0 -- -- 73
2019-04-01 02:00:00 17.8 5 Norte 8 Norte 0 -- -- 74
2019-04-01 01:00:00 17.7 0 Calma 6 Este 0 -- -- 74
2019-04-01 00:00:00 18.4 3 Este 21 Sudeste 0 -- -- 72
2019-03-31 23:00:00 18.7 15 Este 21 Sudeste 0 -- -- 73
2019-03-31 22:00:00 18.9 3 Sur 19 Oeste 0 -- -- 78
2019-03-31 21:00:00 18.9 13 Oeste 21 Oeste 0 -- -- 77
2019-03-31 20:00:00 19.1 14 Oeste 18 Oeste 0 -- -- 78
2019-03-31 19:00:00 19.4 17 Oeste 25 Sudoeste 0 -- -- 78
2019-03-31 18:00:00 18.8 21 Sudoeste 26 Sudoeste 0 -- -- 77
2019-03-31 17:00:00 19.7 13 Oeste 22 Oeste 0 -- -- 76
2019-03-31 16:00:00 19.1 17 Oeste 22 Oeste 0 -- -- 75
2019-03-31 15:00:00 19.7 7 Oeste 12 Sur 0 -- -- 68
2019-03-31 14:00:00 18.7 9 Sur 14 Sudeste 0 -- -- 69
2019-03-31 13:00:00 18.5 9 Sur 14 Sur 0 -- -- 73
2019-03-31 12:00:00 18.5 6 Sur 10 Sur 0 -- -- 73
2019-03-31 11:00:00 19.1 5 Sur 9 Sudeste 0 -- -- 71
2019-03-31 10:00:00 19.4 5 Sudeste 9 Sudeste 0 -- -- 64
2019-03-31 09:00:00 18 4 Nordeste 10 Norte 0 -- -- 72
2019-03-31 08:00:00 16.2 5 Norte 14 Este 0 -- -- 73
2019-03-31 07:00:00 16.8 7 Nordeste 13 Este 0 -- -- 64
2019-03-31 06:00:00 16 5 Norte 9 Norte 0 -- -- 66
2019-03-31 05:00:00 16.5 6 Norte 13 Norte 0 -- -- 76
2019-03-31 04:00:00 16.7 9 Norte 13 Norte 0 -- -- 76
2019-03-31 00:00:00 17.4 4 Nordeste 8 Nordeste 0 -- -- 73
2019-03-30 23:00:00 17.7 5 Nordeste 12 Este 0 -- -- 72
2019-03-30 22:00:00 18 8 Sudeste 12 Sur 0 -- -- 73
2019-03-30 21:00:00 18.1 9 Sur 14 Sur 0 -- -- 74
2019-03-30 20:00:00 18.3 11 Sudoeste 17 Sudoeste 0 -- -- 74
2019-03-30 19:00:00 18.5 7 Sudoeste 14 Sudoeste 0 -- -- 70
2019-03-30 18:00:00 18.4 11 Sur 18 Sudoeste 0 -- -- 71
2019-03-30 17:00:00 18.9 10 Sudoeste 19 Sudoeste 0 -- -- 62
2019-03-30 16:00:00 19.1 12 Sur 21 Sur 0 -- -- 61
2019-03-30 15:00:00 19.3 12 Sur 19 Sur 0 -- -- 59
2019-03-30 14:00:00 18.8 17 Sudeste 22 Sudeste 0 -- -- 67
2019-03-30 13:00:00 18.4 17 Sudeste 23 Sudeste 0 -- -- 73
2019-03-30 12:00:00 18.5 14 Sudeste 19 Sudeste 0 -- -- 67
2019-03-30 11:00:00 18.4 17 Sudeste 19 Sudeste 0 -- -- 70
2019-03-30 10:00:00 18.8 10 Sudeste 13 Sudeste 0 -- -- 68
2019-03-30 09:00:00 18.9 7 Sur 9 Sur 0 -- -- 66
2019-03-30 08:00:00 17.9 5 Norte 8 Norte 0 -- -- 70
2019-03-30 07:00:00 16.7 4 Norte 9 Norte 0 -- -- 70
2019-03-30 06:00:00 16.5 6 Norte 10 Norte 0 -- -- 69
2019-03-30 05:00:00 16.5 5 Norte 7 Norte 0 -- -- 72
2019-03-30 04:00:00 16.5 4 Norte 7 Norte 0 -- -- 74
2019-03-30 03:00:00 16.8 5 Norte 6 Norte 0 -- -- 72
2019-03-30 02:00:00 17.2 4 Norte 7 Norte 0 -- -- 70
2019-03-30 01:00:00 17.5 4 Norte 9 Norte 0 -- -- 69
2019-03-30 00:00:00 18.3 6 Noroeste 19 Oeste 0 -- -- 69
2019-03-29 23:00:00 18.6 15 Oeste 20 Oeste 0 -- -- 72
2019-03-29 22:00:00 18.6 13 Noroeste 27 Oeste 0 -- -- 71
2019-03-29 21:00:00 18.8 18 Noroeste 27 Noroeste 0 -- -- 71
2019-03-29 20:00:00 18.7 21 Oeste 31 Noroeste 0 -- -- 76
2019-03-29 19:00:00 19 22 Oeste 27 Oeste 0 -- -- 77
2019-03-29 18:00:00 19.7 19 Oeste 25 Oeste 0 -- -- 72
2019-03-29 17:00:00 19.2 12 Sudoeste 22 Sudoeste 0 -- -- 75
2019-03-29 16:00:00 19.1 16 Sudoeste 20 Sudoeste 0 -- -- 78
2019-03-29 15:00:00 19 11 Sudoeste 15 Sudoeste 0 -- -- 77
2019-03-29 14:00:00 18.8 10 Sur 15 Sur 0 -- -- 77
2019-03-29 13:00:00 18.8 11 Sur 17 Sur 0 -- -- 75
2019-03-29 12:00:00 18.7 13 Sur 15 Sur 0 -- -- 74
2019-03-29 11:00:00 18.7 11 Sur 17 Sudeste 0 -- -- 74
2019-03-29 10:00:00 19 10 Sur 12 Sudeste 0 -- -- 71
2019-03-29 09:00:00 21 2 Sudoeste 6 Noroeste 0 -- -- 65
2019-03-29 08:00:00 18 4 Norte 8 Norte 0 -- -- 74
2019-03-29 07:00:00 16.6 3 Norte 10 Norte 0 -- -- 79
2019-03-29 06:00:00 16.8 4 Norte 6 Norte 0 -- -- 79
2019-03-29 05:00:00 17.4 2 Sudeste 6 Norte 0 -- -- 79
2019-03-29 04:00:00 17.2 4 Norte 9 Norte 0 -- -- 79
2019-03-29 03:00:00 17.2 4 Norte 5 Norte 0 -- -- 78
2019-03-29 02:00:00 17.6 4 Norte 9 Norte 0 -- -- 76
2019-03-29 01:00:00 17.7 4 Norte 6 Noroeste 0 -- -- 75
2019-03-29 00:00:00 18 5 Sudeste 8 Sudeste 0 -- -- 76
2019-03-28 23:00:00 18.1 5 Sudeste 14 Sudeste 0 -- -- 74
2019-03-28 22:00:00 18.2 3 Sur 10 Sudeste 0 -- -- 78
2019-03-28 21:00:00 18.3 3 Sudeste 14 Sudeste 0 -- -- 79
2019-03-28 20:00:00 18.3 9 Sudeste 12 Sudeste 0 -- -- 80
2019-03-28 19:00:00 18.8 6 Sudeste 11 Sudeste 0 -- -- 78
2019-03-28 18:00:00 18.9 7 Sur 15 Sur 0 -- -- 79
2019-03-28 17:00:00 19.3 12 Sur 16 Sur 0 -- -- 78
2019-03-28 16:00:00 19.1 11 Sur 17 Sudeste 0 -- -- 79
2019-03-28 15:00:00 18.8 13 Sudeste 20 Sudeste 0 -- -- 80
2019-03-28 14:00:00 18.7 17 Sudeste 22 Sudeste 0 -- -- 80
2019-03-28 13:00:00 18.8 19 Sudeste 23 Sudeste 0 -- -- 79
2019-03-28 12:00:00 18.8 16 Sudeste 19 Sudeste 0 -- -- 76
2019-03-28 11:00:00 18.9 8 Sur 12 Sur 0 -- -- 74
2019-03-28 10:00:00 20.6 2 Sur 5 Sur 0 -- -- 71
2019-03-28 09:00:00 20.9 3 Sudeste 4 Sudeste 0 -- -- 70
2019-03-28 08:00:00 18.6 2 Nordeste 9 Norte 0 -- -- 78
2019-03-28 07:00:00 17.1 5 Norte 11 Norte 0 -- -- 79
2019-03-28 06:00:00 17 6 Norte 9 Norte 0 -- -- 78
2019-03-28 05:00:00 17.3 2 Norte 10 Norte 0 -- -- 75
2019-03-28 04:00:00 17.6 8 Norte 12 Norte 0 -- -- 76
2019-03-28 03:00:00 17.8 5 Norte 10 Norte 0 -- -- 78
2019-03-28 02:00:00 18 4 Norte 8 Noroeste 0 -- -- 78
2019-03-28 01:00:00 18.4 3 Noroeste 6 Norte 0 -- -- 79
2019-03-28 00:00:00 18.4 0 Calma 3 Noroeste 0 -- -- 81
2019-03-27 23:00:00 18.4 2 Sur 7 Sur 0 -- -- 80
2019-03-27 22:00:00 18.6 5 Sur 10 Sudeste 0 -- -- 79
2019-03-27 21:00:00 18.7 8 Sudeste 19 Sudeste 0 -- -- 78
2019-03-27 20:00:00 18.6 14 Sudeste 22 Sudeste 0 -- -- 81
2019-03-27 19:00:00 18.9 14 Sudeste 21 Sudeste 0 -- -- 77
2019-03-27 18:00:00 19.2 18 Sudeste 21 Sudeste 0 -- -- 78
2019-03-27 17:00:00 19.7 11 Sur 14 Sur 0 -- -- 75
2019-03-27 16:00:00 19.7 12 Sudeste 14 Sudeste 0 -- -- 75
2019-03-27 15:00:00 19.5 11 Sur 19 Sudeste 0 -- -- 77
2019-03-27 14:00:00 19.3 16 Sudeste 20 Sudeste 0 -- -- 78
2019-03-27 13:00:00 19.1 16 Sudeste 18 Sudeste 0 -- -- 80
2019-03-27 12:00:00 19.2 13 Sudeste 15 Sur 0 -- -- 78
2019-03-27 11:00:00 18.8 14 Sudeste 16 Sudeste 0 -- -- 80
2019-03-27 10:00:00 19 10 Sudeste 15 Sudeste 0 -- -- 78
2019-03-27 09:00:00 19.6 5 Este 12 Este 0 -- -- 76
2019-03-27 08:00:00 17.8 5 Nordeste 8 Este 0 -- -- 83
2019-03-27 07:00:00 16.7 4 Norte 8 Norte 0 -- -- 85
2019-03-27 06:00:00 16.8 3 Norte 7 Nordeste 0 -- -- 84
2019-03-27 05:00:00 16.7 6 Norte 10 Norte 0 -- -- 84
2019-03-27 04:00:00 16.8 5 Norte 9 Norte 0 -- -- 82
2019-03-27 03:00:00 16.8 5 Norte 8 Nordeste 0 -- -- 81
2019-03-27 02:00:00 17.3 5 Nordeste 10 Norte 0 -- -- 80
2019-03-27 01:00:00 17.3 5 Norte 6 Norte 0 -- -- 78
2019-03-27 00:00:00 17.9 3 Nordeste 17 Este 0 -- -- 76